createdAt,value
2019-02-04T00:00:30.816Z,13.27
2019-02-04T00:02:59.839Z,13.10
2019-02-04T00:05:28.462Z,13.10
2019-02-04T00:07:57.186Z,12.03
2019-02-04T00:10:25.811Z,12.33
2019-02-04T00:12:54.398Z,12.73
2019-02-04T00:15:23.026Z,12.03
2019-02-04T00:17:51.725Z,12.23
2019-02-04T00:20:20.334Z,13.73
2019-02-04T00:22:49.098Z,13.43
2019-02-04T00:25:17.724Z,12.53
2019-02-04T00:27:46.472Z,13.83
2019-02-04T00:30:20.651Z,12.70
2019-02-04T00:32:49.228Z,11.97
2019-02-04T00:35:17.848Z,13.33
2019-02-04T00:37:46.531Z,13.03
2019-02-04T00:40:24.318Z,12.70
2019-02-04T00:42:52.918Z,13.67
2019-02-04T00:45:21.618Z,13.63
2019-02-04T00:47:50.195Z,13.17
2019-02-04T00:50:20.604Z,13.13
2019-02-04T00:52:49.309Z,12.87
2019-02-04T00:55:17.929Z,13.60
2019-02-04T00:57:46.587Z,13.40
2019-02-04T01:00:18.823Z,13.03
2019-02-04T01:02:47.647Z,12.20
2019-02-04T01:05:18.886Z,12.57
2019-02-04T01:07:48.507Z,13.43
2019-02-04T01:10:22.831Z,12.63
2019-02-04T01:12:51.658Z,12.90
2019-02-04T01:15:20.458Z,13.03
2019-02-04T01:17:49.222Z,12.93
2019-02-04T01:20:20.782Z,13.50
2019-02-04T01:22:49.442Z,12.47
2019-02-04T01:25:18.336Z,13.27
2019-02-04T01:27:46.931Z,12.70
2019-02-04T01:30:23.010Z,12.70
2019-02-04T01:32:51.598Z,11.90
2019-02-04T01:35:20.436Z,12.17
2019-02-04T01:37:49.154Z,11.83
2019-02-04T01:40:20.659Z,12.60
2019-02-04T01:42:49.755Z,12.03
2019-02-04T01:45:18.430Z,12.97
2019-02-04T01:47:47.066Z,12.17
2019-02-04T01:50:18.013Z,12.70
2019-02-04T01:52:46.802Z,11.83
2019-02-04T01:55:15.656Z,12.33
2019-02-04T01:57:46.359Z,13.27
2019-02-04T02:00:20.731Z,11.50
2019-02-04T02:02:49.326Z,11.47
2019-02-04T02:05:17.925Z,11.70
2019-02-04T02:07:46.664Z,12.17
2019-02-04T02:10:20.617Z,11.83
2019-02-04T02:12:49.907Z,12.40
2019-02-04T02:15:19.037Z,11.93
2019-02-04T02:17:47.967Z,12.50
2019-02-04T02:20:21.912Z,12.17
2019-02-04T02:22:50.555Z,11.80
2019-02-04T02:25:19.298Z,11.93
2019-02-04T02:27:47.928Z,11.97
2019-02-04T02:30:22.475Z,12.73
2019-02-04T02:32:51.104Z,11.80
2019-02-04T02:35:19.691Z,11.83
2019-02-04T02:37:48.252Z,11.33
2019-02-04T02:40:22.678Z,11.57
2019-02-04T02:42:51.229Z,11.83
2019-02-04T02:45:20.184Z,11.63
2019-02-04T02:47:48.820Z,11.20
2019-02-04T02:50:17.744Z,12.10
2019-02-04T02:52:46.374Z,12.03
2019-02-04T02:55:17.304Z,10.93
2019-02-04T02:57:46.213Z,11.10
2019-02-04T03:00:18.047Z,12.40
2019-02-04T03:02:46.675Z,11.70
2019-02-04T03:05:16.703Z,11.53
2019-02-04T03:07:45.334Z,11.37
2019-02-04T03:10:17.147Z,11.13
2019-02-04T03:12:46.114Z,11.73
2019-02-04T03:15:14.942Z,11.47
2019-02-04T03:17:51.326Z,11.00
2019-02-04T03:20:14.951Z,11.17
2019-02-04T03:22:43.639Z,10.93
2019-02-04T03:25:14.404Z,10.80
2019-02-04T03:27:43.233Z,10.80
2019-02-04T03:30:14.969Z,10.63
2019-02-04T03:32:43.581Z,11.40
2019-02-04T03:35:12.577Z,11.07
2019-02-04T03:37:41.237Z,11.30
2019-02-04T03:40:18.846Z,11.80
2019-02-04T03:42:47.603Z,11.40
2019-02-04T03:45:17.780Z,11.30
2019-02-04T03:47:46.444Z,10.70
2019-02-04T03:50:15.229Z,11.97
2019-02-04T03:52:43.960Z,11.40
2019-02-04T03:55:15.167Z,11.30
2019-02-04T03:57:43.980Z,11.40
2019-02-04T04:00:18.218Z,11.83
2019-02-04T04:02:47.141Z,11.83
2019-02-04T04:05:16.044Z,11.73
2019-02-04T04:07:44.935Z,11.63
2019-02-04T04:10:14.129Z,12.23
2019-02-04T04:12:42.785Z,10.93
2019-02-04T04:15:13.449Z,11.53
2019-02-04T04:17:42.178Z,12.10
2019-02-04T04:20:13.886Z,12.00
2019-02-04T04:22:42.541Z,11.77
2019-02-04T04:25:13.701Z,11.70
2019-02-04T04:27:42.561Z,11.53
2019-02-04T04:30:14.265Z,11.97
2019-02-04T04:32:42.849Z,11.23
2019-02-04T04:35:11.945Z,11.27
2019-02-04T04:37:40.534Z,11.60
2019-02-04T04:40:11.535Z,11.37
2019-02-04T04:42:40.125Z,11.83
2019-02-04T04:45:11.693Z,12.23
2019-02-04T04:47:40.289Z,11.90
2019-02-04T04:50:09.786Z,12.03
2019-02-04T04:52:38.373Z,12.77
2019-02-04T04:55:10.681Z,12.50
2019-02-04T04:57:39.335Z,11.77
2019-02-04T05:00:10.982Z,13.00
2019-02-04T05:02:39.869Z,12.10
2019-02-04T05:05:10.870Z,12.13
2019-02-04T05:07:39.457Z,12.63
2019-02-04T05:10:16.471Z,11.80
2019-02-04T05:12:45.218Z,12.13
2019-02-04T05:15:19.782Z,12.47
2019-02-04T05:17:48.372Z,12.40
2019-02-04T05:20:17.868Z,12.50
2019-02-04T05:22:46.619Z,12.27
2019-02-04T05:25:16.011Z,12.10
2019-02-04T05:27:44.837Z,12.27
2019-02-04T05:30:15.874Z,12.20
2019-02-04T05:32:44.567Z,12.63
2019-02-04T05:35:13.480Z,11.97
2019-02-04T05:37:42.214Z,11.50
2019-02-04T05:40:18.121Z,11.67
2019-02-04T05:42:47.246Z,11.20
2019-02-04T05:45:18.241Z,11.97
2019-02-04T05:47:46.799Z,11.93
2019-02-04T05:50:17.662Z,11.57
2019-02-04T05:52:47.377Z,12.57
2019-02-04T05:55:17.405Z,11.70
2019-02-04T05:57:46.179Z,12.47
2019-02-04T06:00:23.120Z,12.83
2019-02-04T06:02:51.682Z,11.37
2019-02-04T06:05:20.706Z,12.10
2019-02-04T06:07:49.317Z,14.13
2019-02-04T06:10:18.209Z,14.33
2019-02-04T06:12:46.785Z,12.17
2019-02-04T06:15:16.827Z,12.57
2019-02-04T06:17:45.445Z,12.53
2019-02-04T06:20:19.941Z,12.47
2019-02-04T06:22:48.569Z,11.03
2019-02-04T06:25:17.229Z,12.03
2019-02-04T06:27:45.854Z,11.40
2019-02-04T06:30:16.089Z,11.50
2019-02-04T06:32:44.660Z,11.97
2019-02-04T06:35:14.677Z,11.77
2019-02-04T06:37:43.314Z,11.60
2019-02-04T06:40:16.677Z,11.47
2019-02-04T06:42:45.501Z,10.93
2019-02-04T06:45:16.399Z,11.40
2019-02-04T06:47:45.115Z,10.87
2019-02-04T06:50:16.405Z,11.80
2019-02-04T06:52:45.123Z,10.87
2019-02-04T06:55:19.648Z,11.60
2019-02-04T06:57:48.222Z,11.03
2019-02-04T07:00:19.973Z,10.63
2019-02-04T07:02:48.697Z,11.10
2019-02-04T07:05:18.097Z,10.83
2019-02-04T07:07:46.660Z,11.20
2019-02-04T07:10:21.074Z,10.90
2019-02-04T07:12:49.740Z,12.07
2019-02-04T07:15:18.410Z,11.00
2019-02-04T07:17:46.961Z,11.67
2019-02-04T07:20:24.137Z,11.60
2019-02-04T07:22:52.947Z,11.07
2019-02-04T07:25:22.381Z,11.37
2019-02-04T07:27:51.208Z,11.43
2019-02-04T07:30:24.858Z,12.33
2019-02-04T07:32:54.087Z,11.00
2019-02-04T07:35:23.027Z,11.37
2019-02-04T07:37:51.645Z,11.90
2019-02-04T07:40:22.946Z,9.93
2019-02-04T07:42:52.763Z,10.43
2019-02-04T07:45:21.409Z,10.80
2019-02-04T07:47:50.337Z,11.23
2019-02-04T07:50:18.931Z,11.23
2019-02-04T07:52:47.628Z,11.37
2019-02-04T07:55:16.209Z,9.50
2019-02-04T07:57:44.830Z,11.27
2019-02-04T08:00:16.435Z,11.90
2019-02-04T08:02:46.029Z,9.93
2019-02-04T08:05:14.931Z,11.47
2019-02-04T08:07:43.653Z,12.00
2019-02-04T08:10:14.561Z,12.10
2019-02-04T08:12:43.219Z,10.77
2019-02-04T08:15:17.389Z,10.97
2019-02-04T08:17:46.045Z,10.93
2019-02-04T08:20:15.249Z,10.07
2019-02-04T08:22:43.902Z,9.80
2019-02-04T08:25:14.694Z,10.73
2019-02-04T08:27:43.357Z,11.03
2019-02-04T08:30:23.683Z,10.27
2019-02-04T08:32:52.349Z,10.73
2019-02-04T08:35:21.078Z,10.37
2019-02-04T08:37:49.729Z,9.27
2019-02-04T08:40:19.485Z,10.03
2019-02-04T08:42:48.016Z,9.60
2019-02-04T08:45:17.026Z,10.13
2019-02-04T08:47:46.043Z,9.80
2019-02-04T08:50:25.602Z,10.13
2019-02-04T08:52:54.569Z,9.70
2019-02-04T08:55:23.207Z,10.00
2019-02-04T08:57:52.233Z,10.47
2019-02-04T09:00:24.784Z,9.17
2019-02-04T09:02:53.439Z,9.23
2019-02-04T09:05:23.439Z,10.17
2019-02-04T09:07:52.107Z,10.17
2019-02-04T09:10:26.533Z,9.40
2019-02-04T09:12:55.493Z,10.00
2019-02-04T09:15:24.045Z,9.77
2019-02-04T09:17:52.700Z,9.53
2019-02-04T09:20:21.393Z,10.13
2019-02-04T09:22:50.078Z,9.70
2019-02-04T09:25:23.694Z,9.57
2019-02-04T09:27:52.913Z,9.70
2019-02-04T09:30:26.257Z,10.43
2019-02-04T09:32:55.485Z,10.13
2019-02-04T09:35:24.373Z,10.33
2019-02-04T09:37:53.232Z,10.33
2019-02-04T09:40:36.670Z,10.53
2019-02-04T09:43:05.594Z,10.07
2019-02-04T09:45:34.221Z,9.40
2019-02-04T09:48:03.450Z,10.13
2019-02-04T09:50:37.927Z,10.00
2019-02-04T09:53:06.705Z,9.83
2019-02-04T09:55:37.297Z,9.87
2019-02-04T09:58:06.526Z,10.10
2019-02-04T10:00:36.321Z,9.80
2019-02-04T10:03:06.351Z,9.20
2019-02-04T10:05:35.337Z,8.93
2019-02-04T10:08:04.797Z,9.10
2019-02-04T10:10:33.624Z,9.47
2019-02-04T10:13:02.297Z,8.77
2019-02-04T10:15:39.600Z,9.90
2019-02-04T10:18:08.701Z,9.80
2019-02-04T10:20:37.571Z,9.40
2019-02-04T10:23:07.649Z,9.17
2019-02-04T10:25:39.279Z,8.90
2019-02-04T10:28:08.729Z,9.17
2019-02-04T10:30:37.530Z,9.67
2019-02-04T10:33:06.055Z,9.40
2019-02-04T10:35:34.926Z,9.50
2019-02-04T10:38:03.806Z,9.20
2019-02-04T10:40:32.459Z,9.53
2019-02-04T10:43:01.423Z,8.73
2019-02-04T10:45:30.132Z,9.07
2019-02-04T10:47:58.727Z,8.83
2019-02-04T10:50:45.083Z,9.87
2019-02-04T10:53:03.963Z,9.37
2019-02-04T10:55:32.661Z,9.50
2019-02-04T10:58:01.294Z,9.80
2019-02-04T11:00:32.658Z,8.17
2019-02-04T11:03:01.448Z,8.73
2019-02-04T11:05:32.486Z,9.10
2019-02-04T11:08:01.158Z,8.40
2019-02-04T11:10:34.382Z,8.90
2019-02-04T11:13:05.379Z,8.67
2019-02-04T11:15:33.974Z,8.03
2019-02-04T11:18:02.605Z,9.13
2019-02-04T11:20:32.949Z,9.33
2019-02-04T11:23:01.623Z,8.40
2019-02-04T11:25:30.275Z,8.90
2019-02-04T11:27:58.903Z,9.37
2019-02-04T11:30:30.346Z,11.67
2019-02-04T11:32:59.334Z,9.07
2019-02-04T11:35:27.989Z,8.90
2019-02-04T11:37:56.635Z,8.93
2019-02-04T11:40:30.801Z,9.00
2019-02-04T11:42:59.433Z,9.00
2019-02-04T11:45:28.867Z,9.00
2019-02-04T11:47:57.550Z,8.50
2019-02-04T11:50:26.239Z,7.90
2019-02-04T11:52:54.830Z,7.33
2019-02-04T11:55:23.522Z,7.20
2019-02-04T11:57:52.106Z,6.90
2019-02-04T12:00:25.876Z,7.40
2019-02-04T12:02:55.498Z,6.80
2019-02-04T12:05:24.434Z,7.33
2019-02-04T12:07:53.666Z,7.00
2019-02-04T12:10:27.994Z,6.70
2019-02-04T12:12:56.645Z,6.37
2019-02-04T12:15:25.939Z,6.92
2019-02-04T12:17:54.526Z,6.65
2019-02-04T12:20:23.232Z,6.62
2019-02-04T12:22:51.871Z,6.80
2019-02-04T12:25:25.618Z,6.72
2019-02-04T12:27:55.830Z,6.85
2019-02-04T12:30:31.141Z,7.00
2019-02-04T12:33:00.787Z,6.50
2019-02-04T12:35:29.695Z,6.25
2019-02-04T12:37:58.350Z,5.80
2019-02-04T12:40:27.746Z,5.85
2019-02-04T12:42:56.398Z,5.53
2019-02-04T12:45:27.962Z,5.40
2019-02-04T12:47:57.186Z,5.30
2019-02-04T12:50:25.812Z,4.60
2019-02-04T12:52:54.677Z,4.78
2019-02-04T12:55:30.627Z,4.90
2019-02-04T12:57:59.224Z,4.50
2019-02-04T13:00:32.026Z,4.17
2019-02-04T13:03:00.610Z,4.62
2019-02-04T13:05:32.579Z,4.20
2019-02-04T13:08:01.322Z,4.80
2019-02-04T13:10:29.934Z,4.55
2019-02-04T13:12:58.670Z,4.33
2019-02-04T13:15:27.373Z,4.30
2019-02-04T13:17:55.966Z,3.50
2019-02-04T13:20:24.658Z,3.75
2019-02-04T13:22:53.321Z,3.37
2019-02-04T13:25:24.952Z,3.17
2019-02-04T13:27:53.684Z,3.40
2019-02-04T13:30:27.433Z,3.10
2019-02-04T13:32:56.457Z,2.92
2019-02-04T13:35:25.199Z,3.02
2019-02-04T13:37:54.286Z,3.27
2019-02-04T13:40:27.309Z,2.95
2019-02-04T13:42:56.235Z,2.90
2019-02-04T13:45:25.341Z,2.50
2019-02-04T13:47:54.763Z,2.62
2019-02-04T13:50:24.157Z,2.67
2019-02-04T13:52:53.388Z,2.67
2019-02-04T13:55:27.270Z,2.50
2019-02-04T13:57:55.850Z,2.52
2019-02-04T14:00:27.222Z,2.60
2019-02-04T14:02:59.542Z,2.40
2019-02-04T14:05:30.947Z,2.50
2019-02-04T14:07:58.323Z,2.50
2019-02-04T14:10:32.526Z,2.62
2019-02-04T14:13:01.182Z,2.20
2019-02-04T14:15:30.278Z,2.30
2019-02-04T14:17:59.167Z,2.85
2019-02-04T14:20:27.790Z,2.50
2019-02-04T14:22:56.722Z,2.50
2019-02-04T14:25:25.424Z,2.50
2019-02-04T14:27:54.098Z,2.00
2019-02-04T14:30:31.879Z,2.27
2019-02-04T14:33:00.594Z,2.10
2019-02-04T14:35:29.324Z,2.40
2019-02-04T14:37:59.044Z,2.40
2019-02-04T14:40:27.680Z,1.90
2019-02-04T14:42:59.881Z,2.00
2019-02-04T14:45:53.380Z,2.10
2019-02-04T14:48:37.194Z,1.98
2019-02-04T14:51:31.854Z,2.20
2019-02-04T14:54:37.598Z,2.00
2019-02-04T14:57:19.253Z,2.12
2019-02-04T14:59:50.934Z,1.82
2019-02-04T15:02:31.337Z,2.33
2019-02-04T15:05:03.053Z,2.27
2019-02-04T15:07:55.834Z,2.10
2019-02-04T15:10:33.394Z,2.37
2019-02-04T15:13:39.868Z,2.10
2019-02-04T15:16:14.458Z,2.33
2019-02-04T15:19:08.754Z,2.40
2019-02-04T15:21:58.262Z,2.33
2019-02-04T15:24:56.658Z,2.40
2019-02-04T15:27:34.446Z,2.40
2019-02-04T15:30:33.715Z,2.37
2019-02-04T15:33:08.214Z,2.50
2019-02-04T15:35:58.018Z,2.50
2019-02-04T15:38:35.482Z,2.33
2019-02-04T15:41:09.804Z,2.33
2019-02-04T15:43:41.670Z,2.20
2019-02-04T15:46:16.025Z,2.30
2019-02-04T15:49:12.183Z,2.10
2019-02-04T15:51:42.802Z,2.40
2019-02-04T15:54:11.366Z,2.33
2019-02-04T15:56:39.951Z,2.97
2019-02-04T15:59:08.499Z,2.50
2019-02-04T16:01:37.122Z,2.40
2019-02-04T16:04:26.174Z,2.80
2019-02-04T16:06:54.763Z,2.73
2019-02-04T16:09:23.318Z,2.70
2019-02-04T16:11:51.930Z,3.00
2019-02-04T16:14:20.486Z,3.90
2019-02-04T16:16:49.438Z,4.10
2019-02-04T16:19:17.990Z,3.50
2019-02-04T16:21:46.591Z,3.70
2019-02-04T16:24:15.210Z,4.40
2019-02-04T16:26:43.802Z,5.20
2019-02-04T16:29:12.382Z,5.27
2019-02-04T16:31:41.007Z,5.90
2019-02-04T16:34:09.651Z,6.37
2019-02-04T16:36:38.202Z,6.33
2019-02-04T16:39:10.634Z,6.83
2019-02-04T16:41:39.262Z,6.50
2019-02-04T16:44:08.383Z,6.63
2019-02-04T16:46:37.078Z,6.60
2019-02-04T16:49:05.751Z,6.37
2019-02-04T16:51:34.380Z,6.23
2019-02-04T16:54:03.038Z,7.00
2019-02-04T16:56:31.662Z,6.87
2019-02-04T16:59:00.328Z,7.07
2019-02-04T17:01:29.141Z,7.50
2019-02-04T17:03:58.026Z,8.10
2019-02-04T17:06:26.586Z,9.20
2019-02-04T17:08:55.246Z,9.20
2019-02-04T17:11:23.803Z,9.20
2019-02-04T17:13:52.397Z,9.07
2019-02-04T17:16:20.953Z,9.23
2019-02-04T17:18:49.931Z,9.20
2019-02-04T17:21:18.653Z,8.87
2019-02-04T17:23:47.307Z,8.93
2019-02-04T17:26:15.858Z,9.13
2019-02-04T17:28:44.449Z,9.10
2019-02-04T17:31:12.995Z,9.70
2019-02-04T17:33:41.618Z,9.10
2019-02-04T17:36:10.242Z,9.10
2019-02-04T17:38:38.829Z,8.57
2019-02-04T17:41:07.742Z,9.10
2019-02-04T17:43:36.415Z,8.60
2019-02-04T17:46:05.292Z,9.13
2019-02-04T17:48:34.077Z,9.20
2019-02-04T17:51:02.840Z,9.60
2019-02-04T17:53:34.348Z,9.30
2019-02-04T17:56:02.514Z,9.20
2019-02-04T17:58:31.098Z,9.40
2019-02-04T18:00:59.647Z,9.93
2019-02-04T18:03:28.236Z,9.47
2019-02-04T18:05:57.195Z,9.90
2019-02-04T18:08:25.846Z,9.40
2019-02-04T18:10:54.413Z,9.50
2019-02-04T18:13:22.998Z,9.80
2019-02-04T18:15:51.739Z,9.13
2019-02-04T18:18:20.328Z,9.33
2019-02-04T18:20:49.186Z,9.73
2019-02-04T18:23:17.750Z,9.50
2019-02-04T18:25:46.346Z,9.17
2019-02-04T18:28:14.973Z,9.33
2019-02-04T18:30:43.635Z,9.60
2019-02-04T18:33:12.255Z,9.70
2019-02-04T18:35:41.238Z,9.93
2019-02-04T18:38:09.914Z,10.00
2019-02-04T18:40:38.500Z,10.23
2019-02-04T18:43:07.061Z,10.47
2019-02-04T18:45:36.187Z,10.33
2019-02-04T18:48:06.078Z,9.40
2019-02-04T18:50:34.866Z,10.17
2019-02-04T18:53:03.792Z,11.10
2019-02-04T18:55:33.815Z,10.73
2019-02-04T18:58:02.373Z,10.93
2019-02-04T19:00:32.719Z,10.90
2019-02-04T19:03:03.030Z,10.67
2019-02-04T19:05:31.847Z,10.67
2019-02-04T19:08:00.406Z,10.80
2019-02-04T19:10:29.138Z,10.60
2019-02-04T19:12:57.702Z,10.23
2019-02-04T19:15:28.062Z,9.97
2019-02-04T19:18:02.650Z,9.93
2019-02-04T19:20:31.315Z,10.40
2019-02-04T19:22:59.871Z,9.67
2019-02-04T19:25:28.587Z,9.37
2019-02-04T19:27:57.206Z,9.30
2019-02-04T19:30:41.479Z,9.43
2019-02-04T19:33:10.030Z,9.70
2019-02-04T19:35:38.690Z,10.00
2019-02-04T19:38:07.395Z,9.67
2019-02-04T19:40:35.997Z,10.10
2019-02-04T19:43:05.097Z,9.70
2019-02-04T19:45:34.153Z,10.47
2019-02-04T19:48:03.272Z,10.03
2019-02-04T19:50:34.290Z,10.77
2019-02-04T19:53:02.920Z,10.90
2019-02-04T19:55:31.588Z,11.67
2019-02-04T19:58:00.284Z,11.10
2019-02-04T20:00:29.353Z,11.53
2019-02-04T20:02:57.902Z,10.70
2019-02-04T20:05:31.382Z,11.07
2019-02-04T20:08:00.285Z,11.20
2019-02-04T20:10:32.059Z,11.00
2019-02-04T20:13:00.959Z,10.57
2019-02-04T20:15:31.290Z,10.60
2019-02-04T20:18:00.300Z,11.90
2019-02-04T20:20:29.415Z,11.93
2019-02-04T20:22:58.510Z,10.77
2019-02-04T20:25:29.710Z,11.20
2019-02-04T20:27:58.509Z,10.80
2019-02-04T20:30:45.365Z,11.07
2019-02-04T20:33:06.570Z,10.93
2019-02-04T20:35:35.227Z,11.07
2019-02-04T20:38:04.258Z,10.50
2019-02-04T20:40:32.843Z,10.57
2019-02-04T20:43:01.776Z,10.60
2019-02-04T20:45:30.611Z,10.77
2019-02-04T20:47:59.420Z,10.87
2019-02-04T20:50:33.927Z,10.73
2019-02-04T20:53:02.631Z,10.67
2019-02-04T20:55:31.295Z,10.80
2019-02-04T20:58:00.222Z,10.90
2019-02-04T21:00:30.255Z,10.53
2019-02-04T21:03:01.825Z,11.23
2019-02-04T21:05:29.390Z,11.03
2019-02-04T21:07:58.058Z,11.07
2019-02-04T21:10:30.754Z,10.67
2019-02-04T21:12:59.450Z,10.73
2019-02-04T21:15:28.144Z,10.97
2019-02-04T21:17:56.673Z,11.43
2019-02-04T21:20:29.308Z,10.37
2019-02-04T21:22:57.954Z,9.53
2019-02-04T21:25:26.778Z,10.03
2019-02-04T21:27:55.413Z,10.43
2019-02-04T21:30:32.849Z,10.27
2019-02-04T21:33:01.474Z,10.33
2019-02-04T21:35:30.059Z,9.70
2019-02-04T21:37:58.606Z,9.47
2019-02-04T21:40:27.663Z,10.20
2019-02-04T21:42:56.222Z,9.80
2019-02-04T21:45:26.155Z,10.10
2019-02-04T21:47:55.075Z,9.50
2019-02-04T21:50:29.111Z,9.60
2019-02-04T21:52:58.598Z,10.53
2019-02-04T21:55:27.554Z,9.30
2019-02-04T21:57:56.176Z,9.73
2019-02-04T22:00:28.459Z,9.33
2019-02-04T22:02:57.078Z,9.97
2019-02-04T22:05:28.111Z,10.30
2019-02-04T22:07:56.806Z,9.77
2019-02-04T22:10:27.535Z,10.33
2019-02-04T22:12:56.167Z,11.03
2019-02-04T22:15:25.190Z,10.57
2019-02-04T22:17:53.750Z,11.00
2019-02-04T22:20:23.069Z,10.23
2019-02-04T22:22:52.667Z,10.33
2019-02-04T22:25:23.187Z,10.67
2019-02-04T22:27:51.887Z,9.33
2019-02-04T22:30:28.669Z,9.90
2019-02-04T22:32:57.291Z,9.07
2019-02-04T22:35:25.923Z,9.20
2019-02-04T22:37:54.623Z,9.33
2019-02-04T22:40:25.452Z,9.53
2019-02-04T22:42:54.007Z,8.70
2019-02-04T22:45:22.824Z,9.33
2019-02-04T22:47:51.722Z,9.03
2019-02-04T22:50:22.243Z,8.13
2019-02-04T22:52:51.134Z,9.07
2019-02-04T22:55:31.003Z,9.07
2019-02-04T22:57:50.927Z,9.20
2019-02-04T23:00:51.479Z,9.37
2019-02-04T23:03:26.134Z,9.57
2019-02-04T23:05:54.727Z,8.57
2019-02-04T23:08:23.282Z,9.43
2019-02-04T23:10:51.934Z,9.57
2019-02-04T23:13:20.481Z,9.23
2019-02-04T23:15:49.066Z,8.33
2019-02-04T23:18:17.620Z,7.87
2019-02-04T23:20:46.199Z,8.90
2019-02-04T23:23:14.750Z,8.87
2019-02-04T23:25:43.949Z,8.50
2019-02-04T23:28:12.659Z,8.17
2019-02-04T23:30:41.314Z,7.73
2019-02-04T23:33:09.892Z,8.00
2019-02-04T23:35:38.522Z,7.83
2019-02-04T23:38:07.211Z,8.30
2019-02-04T23:40:35.861Z,8.53
2019-02-04T23:43:05.046Z,8.00
2019-02-04T23:45:33.630Z,7.70
2019-02-04T23:48:02.463Z,7.87
2019-02-04T23:50:31.106Z,7.93
2019-02-04T23:52:59.659Z,7.67
2019-02-04T23:55:28.233Z,7.60
2019-02-04T23:57:57.054Z,8.37
